Sorocaba, Brazil
Current Conditions -  °F | °C
As of 5:00 PM on Friday 21 Nov 2014 (Local Time) from SBKP Reporting Station
Rain Showers Rain Showers  
Wind Chill: 91°   Ceiling: 10000
Heat Index: 91°   Visibility: 6mi
Dew Point: 52°   Wind: 6mph
Humidity: 26%   Direction: 270°W
Pressure: NA   Gusts: NA
Location:  23.49°S, 47.47°W
Report Text: SBKP 211900Z 27005KT 9999 VCSH SCT045 FEW050TCU BKN100 33/11 Q1013
Loading
Personal Weather Stations






























Interactive Weather Map New forecast layout! Learn more

10-Day Weather Forecast

Advertisements
Track Severe Weather on mobile